Time;durP1;ratioP1;P1;durP2;ratioP2;P2;SDS_P1;SDS_P2;PMS_P1;PMS_P2;Temp;Humidity;BMP_temperature;BMP_pressure;BME280_temperature;BME280_humidity;BME280_pressure;Samples;Min_cycle;Max_cycle;Signal;HPM_P1;HPM_P2
2022/04/29 00:00:34;;;;;;;40.00;12.33;;;10.00;23.80;;;;;;5076349;28;20844;-60
2022/04/29 00:03:01;;;;;;;37.53;11.50;;;10.00;24.10;;;;;;5069110;28;20456;-59
2022/04/29 00:05:28;;;;;;;41.20;14.17;;;10.00;24.10;;;;;;5079064;28;20456;-60
2022/04/29 00:07:55;;;;;;;39.17;13.20;;;10.00;24.20;;;;;;5076552;28;20480;-60
2022/04/29 00:10:22;;;;;;;41.83;14.60;;;9.90;24.00;;;;;;5077454;28;20460;-60
2022/04/29 00:12:50;;;;;;;40.53;14.03;;;9.80;24.20;;;;;;5083786;28;20472;-60
2022/04/29 00:15:19;;;;;;;42.27;14.70;;;9.80;24.40;;;;;;5072908;28;20791;-60
2022/04/29 00:17:46;;;;;;;39.90;14.00;;;9.80;24.70;;;;;;5081665;28;20465;-60
2022/04/29 00:20:13;;;;;;;43.17;14.37;;;9.70;24.70;;;;;;5078781;28;20460;-61
2022/04/29 00:22:40;;;;;;;42.40;14.97;;;9.70;24.60;;;;;;5078198;28;20991;-59
2022/04/29 00:25:09;;;;;;;41.40;14.50;;;9.60;24.90;;;;;;5079672;28;20463;-61
2022/04/29 00:27:37;;;;;;;41.73;14.70;;;9.60;25.00;;;;;;5086281;28;20526;-60
2022/04/29 00:30:05;;;;;;;41.77;14.03;;;9.60;25.20;;;;;;5076713;28;20834;-60
2022/04/29 00:32:33;;;;;;;41.67;14.30;;;9.60;25.20;;;;;;5073089;28;21185;-60
2022/04/29 00:35:00;;;;;;;41.53;14.47;;;9.50;25.30;;;;;;5076316;28;20552;-61
2022/04/29 00:37:27;;;;;;;40.40;14.03;;;9.50;25.70;;;;;;5073781;28;20449;-60
2022/04/29 00:39:53;;;;;;;40.70;14.10;;;9.50;25.70;;;;;;5077232;28;20476;-60
2022/04/29 00:42:22;;;;;;;43.27;15.57;;;9.40;25.80;;;;;;5081747;28;20460;-61
2022/04/29 00:44:50;;;;;;;42.90;16.77;;;9.40;25.70;;;;;;5081300;28;20451;-60
2022/04/29 00:47:18;;;;;;;43.67;16.07;;;9.40;25.90;;;;;;5081700;28;20550;-59
2022/04/29 00:49:47;;;;;;;45.53;15.70;;;9.40;26.00;;;;;;5084350;28;20479;-60
2022/04/29 00:52:16;;;;;;;44.57;15.53;;;9.40;25.90;;;;;;5077465;28;20488;-61
2022/04/29 00:54:48;;;;;;;41.77;15.73;;;9.30;25.90;;;;;;5081297;28;20472;-61
2022/04/29 00:57:20;;;;;;;41.97;14.77;;;9.30;26.20;;;;;;5079640;28;20536;-60
2022/04/29 00:59:54;;;;;;;44.17;14.90;;;9.20;26.10;;;;;;5076831;28;20469;-60
2022/04/29 01:02:22;;;;;;;43.80;16.93;;;9.20;26.90;;;;;;5081755;28;20459;-60
2022/04/29 01:04:59;;;;;;;43.10;15.60;;;9.20;26.30;;;;;;5083641;28;20463;-60
2022/04/29 01:07:28;;;;;;;40.97;15.50;;;9.20;26.80;;;;;;5080719;28;20471;-60
2022/04/29 01:09:54;;;;;;;43.90;15.17;;;9.10;26.50;;;;;;5079695;28;20473;-60
2022/04/29 01:12:21;;;;;;;43.23;15.67;;;9.10;26.60;;;;;;5079474;28;20463;-60
2022/04/29 01:14:49;;;;;;;42.10;15.50;;;9.10;26.80;;;;;;5078920;28;20946;-60
2022/04/29 01:17:16;;;;;;;46.13;16.03;;;9.10;26.80;;;;;;5079674;28;20448;-60
2022/04/29 01:19:43;;;;;;;41.60;14.57;;;9.10;27.10;;;;;;5071037;28;20557;-60
2022/04/29 01:22:12;;;;;;;45.40;16.07;;;9.10;26.90;;;;;;5079914;28;20835;-60
2022/04/29 01:24:39;;;;;;;44.30;16.40;;;9.00;26.90;;;;;;5080236;28;20529;-60
2022/04/29 01:27:10;;;;;;;45.50;18.20;;;9.00;26.80;;;;;;5078524;28;21012;-60
2022/04/29 01:29:41;;;;;;;45.63;18.13;;;8.90;27.20;;;;;;5084858;28;20997;-60
2022/04/29 01:32:10;;;;;;;45.77;19.07;;;8.90;27.20;;;;;;5075825;28;20470;-61
2022/04/29 01:34:37;;;;;;;47.10;17.40;;;8.90;27.40;;;;;;5081373;28;20465;-61
2022/04/29 01:37:04;;;;;;;48.67;17.10;;;8.90;27.10;;;;;;5081216;28;20543;-60
2022/04/29 01:39:32;;;;;;;46.83;16.83;;;8.80;27.50;;;;;;5082843;28;20473;-59
2022/04/29 01:41:59;;;;;;;44.33;16.20;;;8.80;27.50;;;;;;5083426;28;20464;-60
2022/04/29 01:44:26;;;;;;;44.13;15.53;;;8.80;27.60;;;;;;5086172;28;20452;-61
2022/04/29 01:46:53;;;;;;;43.87;15.50;;;8.80;27.70;;;;;;5081355;28;20484;-60
2022/04/29 01:49:19;;;;;;;42.87;15.40;;;8.70;27.60;;;;;;5073870;28;20469;-60
2022/04/29 01:51:46;;;;;;;49.30;15.70;;;8.70;27.50;;;;;;5074761;28;20499;-60
2022/04/29 01:54:13;;;;;;;45.30;17.13;;;8.70;27.70;;;;;;5083921;28;20464;-62
2022/04/29 01:56:42;;;;;;;42.47;15.57;;;8.70;27.70;;;;;;5076911;28;20457;-60
2022/04/29 01:59:09;;;;;;;43.13;16.60;;;8.70;27.80;;;;;;5086628;28;20507;-61
2022/04/29 02:01:36;;;;;;;44.27;17.17;;;8.60;27.90;;;;;;5082235;28;20468;-60
2022/04/29 02:04:03;;;;;;;42.77;16.27;;;8.60;28.10;;;;;;5090730;28;20490;-60
2022/04/29 02:06:30;;;;;;;43.77;15.27;;;8.50;27.80;;;;;;5082648;28;20465;-59
2022/04/29 02:08:56;;;;;;;44.17;15.00;;;8.50;28.00;;;;;;5081786;28;20472;-59
2022/04/29 02:11:23;;;;;;;43.30;15.60;;;8.50;28.10;;;;;;5076919;28;20456;-60
2022/04/29 02:13:52;;;;;;;42.27;15.47;;;8.40;28.20;;;;;;5074991;28;20830;-61
2022/04/29 02:16:18;;;;;;;44.60;16.43;;;8.40;28.60;;;;;;5079005;28;20448;-60
2022/04/29 02:18:45;;;;;;;46.53;16.93;;;8.40;28.40;;;;;;5081871;28;21709;-60
2022/04/29 02:21:12;;;;;;;45.90;15.20;;;8.40;28.50;;;;;;5080655;28;20456;-59
2022/04/29 02:23:38;;;;;;;43.27;15.20;;;8.30;28.50;;;;;;5071867;28;20559;-61
2022/04/29 02:26:05;;;;;;;43.33;14.37;;;8.30;28.50;;;;;;5079972;28;20457;-59
2022/04/29 02:28:33;;;;;;;42.97;13.93;;;8.30;28.70;;;;;;5071739;28;20488;-60
2022/04/29 02:31:01;;;;;;;44.10;15.10;;;8.30;28.60;;;;;;5085360;28;20480;-60
2022/04/29 02:33:29;;;;;;;41.80;14.87;;;8.20;28.60;;;;;;5075574;28;20460;-62
2022/04/29 02:35:56;;;;;;;42.77;13.73;;;8.30;28.90;;;;;;5072429;28;20469;-59
2022/04/29 02:38:23;;;;;;;43.87;15.40;;;8.20;29.60;;;;;;5082065;28;20463;-60
2022/04/29 02:40:50;;;;;;;43.67;14.27;;;8.20;29.20;;;;;;5086452;28;20961;-60
2022/04/29 02:43:17;;;;;;;43.20;14.33;;;8.20;29.30;;;;;;5080199;28;20484;-59
2022/04/29 02:45:46;;;;;;;42.97;14.83;;;8.20;29.10;;;;;;5071313;28;20457;-59
2022/04/29 02:48:15;;;;;;;42.20;15.00;;;8.20;29.00;;;;;;5077717;28;20480;-60
2022/04/29 02:50:41;;;;;;;43.83;16.10;;;8.20;29.00;;;;;;5086650;28;20455;-60
2022/04/29 02:53:08;;;;;;;43.17;14.30;;;8.20;29.10;;;;;;5082201;28;20448;-60
2022/04/29 02:55:35;;;;;;;44.80;15.63;;;8.20;29.20;;;;;;5079723;28;20507;-60
2022/04/29 02:58:02;;;;;;;43.97;14.33;;;8.10;29.20;;;;;;5079045;28;20560;-60
2022/04/29 03:00:29;;;;;;;47.00;16.30;;;8.10;29.10;;;;;;5084053;28;20988;-60
2022/04/29 03:02:55;;;;;;;42.20;14.60;;;8.10;29.20;;;;;;5079312;28;20452;-60
2022/04/29 03:05:23;;;;;;;44.80;16.27;;;8.00;29.20;;;;;;5074096;28;20468;-59
2022/04/29 03:07:50;;;;;;;45.10;15.23;;;8.00;29.30;;;;;;5080812;28;20476;-60
2022/04/29 03:10:17;;;;;;;42.60;14.60;;;8.00;29.50;;;;;;5081666;28;20459;-60
2022/04/29 03:12:44;;;;;;;45.70;14.60;;;8.00;29.50;;;;;;5078630;28;20483;-60
2022/04/29 03:15:17;;;;;;;44.03;15.57;;;7.90;29.60;;;;;;5081031;28;20453;-60
2022/04/29 03:20:31;;;;;;;45.03;17.00;;;7.90;29.80;;;;;;5072114;28;20920;-59
2022/04/29 03:22:57;;;;;;;42.13;14.17;;;7.80;29.70;;;;;;5080697;28;20457;-60
2022/04/29 03:25:24;;;;;;;45.50;15.60;;;7.80;29.90;;;;;;5076179;28;20961;-61
2022/04/29 03:27:51;;;;;;;42.90;15.80;;;7.80;30.00;;;;;;5081767;28;20484;-59
2022/04/29 03:30:18;;;;;;;49.87;17.10;;;7.80;30.30;;;;;;5076118;28;20466;-60
2022/04/29 03:32:51;;;;;;;44.13;15.57;;;7.70;30.10;;;;;;5081658;28;20460;-59
2022/04/29 03:35:18;;;;;;;47.03;15.73;;;7.70;30.50;;;;;;5081887;28;20455;-59
2022/04/29 03:37:46;;;;;;;44.60;16.40;;;7.70;30.20;;;;;;5080165;28;20938;-61
2022/04/29 03:40:14;;;;;;;46.80;16.00;;;7.70;30.10;;;;;;5075235;28;21063;-59
2022/04/29 03:42:41;;;;;;;42.53;14.70;;;7.60;30.90;;;;;;5077172;28;20493;-60
2022/04/29 03:45:09;;;;;;;46.47;15.90;;;7.60;30.50;;;;;;5080479;28;20452;-59
2022/04/29 03:47:35;;;;;;;46.77;14.90;;;7.60;30.60;;;;;;5075854;28;20481;-61
2022/04/29 03:50:02;;;;;;;46.07;15.50;;;7.60;30.60;;;;;;5074972;28;20472;-59
2022/04/29 03:52:29;;;;;;;44.83;15.60;;;7.60;30.40;;;;;;5077477;28;20460;-59
2022/04/29 03:54:57;;;;;;;46.77;16.87;;;7.60;30.60;;;;;;5074730;28;20518;-60
2022/04/29 03:57:24;;;;;;;44.43;17.70;;;7.50;30.50;;;;;;5076787;28;20468;-60
2022/04/29 03:59:51;;;;;;;46.30;17.10;;;7.50;30.70;;;;;;5079293;28;20476;-60
2022/04/29 04:02:18;;;;;;;44.60;15.83;;;7.50;30.80;;;;;;5079271;28;20467;-59
2022/04/29 04:04:45;;;;;;;46.43;17.20;;;7.50;31.00;;;;;;5091144;28;20452;-60
2022/04/29 04:07:12;;;;;;;45.13;16.87;;;7.50;31.00;;;;;;5074045;28;20459;-59
2022/04/29 04:09:39;;;;;;;45.77;16.53;;;7.40;31.00;;;;;;5076719;28;20477;-59
2022/04/29 04:12:09;;;;;;;44.57;16.40;;;7.40;31.00;;;;;;5082959;28;20452;-60
2022/04/29 04:14:36;;;;;;;48.60;18.17;;;7.40;31.20;;;;;;5083714;28;20468;-60
2022/04/29 04:17:03;;;;;;;46.17;16.47;;;7.40;31.00;;;;;;5082904;28;20453;-60
2022/04/29 04:19:30;;;;;;;44.80;16.30;;;7.40;31.40;;;;;;5082723;28;20484;-60
2022/04/29 04:21:57;;;;;;;47.80;18.50;;;7.40;31.30;;;;;;5085841;28;20950;-60
2022/04/29 04:24:23;;;;;;;44.13;14.93;;;7.40;31.20;;;;;;5087441;28;20838;-60
2022/04/29 04:26:50;;;;;;;48.47;15.90;;;7.50;31.40;;;;;;5079877;28;20461;-59
2022/04/29 04:29:18;;;;;;;47.83;17.10;;;7.50;31.50;;;;;;5080609;28;20488;-60
2022/04/29 04:31:45;;;;;;;44.33;15.50;;;7.50;31.10;;;;;;5081142;28;20586;-60
2022/04/29 04:37:02;;;;;;;42.73;15.13;;;7.60;31.20;;;;;;5060568;28;20447;-59
2022/04/29 04:39:29;;;;;;;44.90;15.63;;;7.70;30.90;;;;;;5087352;28;20507;-60
2022/04/29 04:41:56;;;;;;;42.53;14.30;;;7.80;30.80;;;;;;5078102;28;20852;-59
2022/04/29 04:44:24;;;;;;;42.97;14.00;;;7.90;30.70;;;;;;5078274;28;20810;-60
2022/04/29 04:46:51;;;;;;;43.87;15.00;;;8.00;30.60;;;;;;5087284;28;20791;-59
2022/04/29 04:49:17;;;;;;;41.80;13.13;;;8.10;30.50;;;;;;5084363;28;20484;-60
2022/04/29 04:51:44;;;;;;;45.07;15.60;;;8.20;30.20;;;;;;5076228;28;20464;-61
2022/04/29 04:54:11;;;;;;;44.83;14.60;;;8.30;30.10;;;;;;5078828;28;20807;-60
2022/04/29 04:56:38;;;;;;;44.23;13.57;;;8.40;29.80;;;;;;5075911;28;20473;-60
2022/04/29 04:59:05;;;;;;;42.40;13.90;;;8.60;29.50;;;;;;5074646;28;20546;-62
2022/04/29 05:01:33;;;;;;;45.30;13.47;;;8.70;29.20;;;;;;5075565;28;20475;-63
2022/04/29 05:04:00;;;;;;;39.70;11.60;;;8.80;29.00;;;;;;5080042;28;20466;-63
2022/04/29 05:06:27;;;;;;;40.67;13.27;;;9.00;28.70;;;;;;5080911;28;20464;-62
2022/04/29 05:08:53;;;;;;;41.50;14.30;;;9.30;28.50;;;;;;5079391;28;20480;-61
2022/04/29 05:11:20;;;;;;;42.47;12.97;;;9.80;27.40;;;;;;5079434;28;20832;-61
2022/04/29 05:13:47;;;;;;;44.27;11.97;;;10.70;25.80;;;;;;5072419;28;20457;-61
2022/04/29 05:16:13;;;;;;;44.43;12.93;;;11.80;23.10;;;;;;5084953;28;20456;-60
2022/04/29 05:18:41;;;;;;;41.77;12.87;;;12.90;20.50;;;;;;5082560;28;20480;-60
2022/04/29 05:21:08;;;;;;;42.30;13.30;;;13.60;18.50;;;;;;5076188;28;20448;-60
2022/04/29 05:23:36;;;;;;;42.70;13.27;;;14.50;16.80;;;;;;5082353;28;20458;-60
2022/04/29 05:26:03;;;;;;;39.97;12.83;;;15.70;14.80;;;;;;5086101;28;20457;-61
2022/04/29 05:28:30;;;;;;;42.00;12.50;;;17.20;12.50;;;;;;5080543;28;20519;-60
2022/04/29 05:30:57;;;;;;;36.63;11.93;;;18.60;10.20;;;;;;5082065;28;20484;-60
2022/04/29 05:33:24;;;;;;;37.83;11.80;;;20.00;8.20;;;;;;5081382;28;20478;-58
2022/04/29 05:35:53;;;;;;;37.60;11.83;;;21.40;6.00;;;;;;5079888;28;20468;-60
2022/04/29 05:38:20;;;;;;;37.03;12.33;;;22.70;3.40;;;;;;5070209;28;20481;-58
2022/04/29 05:43:32;;;;;;;32.83;10.30;;;24.80;1.00;;;;;;5080244;28;20506;-61
2022/04/29 05:45:58;;;;;;;33.27;11.50;;;25.50;1.00;;;;;;5080750;28;20449;-58
2022/04/29 05:48:25;;;;;;;33.40;11.07;;;25.90;1.00;;;;;;5079265;28;20488;-58
2022/04/29 05:50:53;;;;;;;31.60;10.20;;;26.00;1.00;;;;;;5069866;28;20469;-61
2022/04/29 05:53:20;;;;;;;33.93;11.13;;;26.30;1.00;;;;;;5078247;28;20456;-58
2022/04/29 05:55:47;;;;;;;34.30;10.70;;;26.30;1.00;;;;;;5085381;28;21176;-58
2022/04/29 05:58:13;;;;;;;32.40;11.07;;;26.30;1.00;;;;;;5085334;28;20485;-59
2022/04/29 06:00:40;;;;;;;32.73;10.63;;;27.10;1.00;;;;;;5078537;28;20472;-61
2022/04/29 06:03:07;;;;;;;31.30;9.50;;;28.50;1.00;;;;;;5085036;28;20986;-58
2022/04/29 06:05:34;;;;;;;30.37;9.70;;;29.80;1.00;;;;;;5074886;28;21032;-59
2022/04/29 06:08:02;;;;;;;29.70;8.77;;;31.10;1.00;;;;;;5075242;28;20575;-61
2022/04/29 06:10:28;;;;;;;29.90;8.93;;;32.20;1.00;;;;;;5084106;28;20638;-58
2022/04/29 06:12:55;;;;;;;30.40;10.20;;;33.10;1.00;;;;;;5082181;28;20461;-58
2022/04/29 06:15:22;;;;;;;30.00;10.10;;;33.70;1.00;;;;;;5088187;28;20457;-61
2022/04/29 06:17:49;;;;;;;30.87;9.33;;;33.70;1.00;;;;;;5076637;28;20457;-59
2022/04/29 06:20:15;;;;;;;29.53;9.70;;;34.20;1.00;;;;;;5075442;28;21009;-59
2022/04/29 06:22:45;;;;;;;28.50;9.10;;;34.90;1.00;;;;;;5081095;28;20456;-58
2022/04/29 06:25:13;;;;;;;31.83;9.13;;;35.80;1.00;;;;;;5078642;28;20465;-59
2022/04/29 06:27:41;;;;;;;28.77;9.03;;;36.60;1.00;;;;;;5088267;28;20461;-58
2022/04/29 06:30:09;;;;;;;29.00;10.23;;;37.00;1.00;;;;;;5077150;28;20489;-59
2022/04/29 06:32:36;;;;;;;28.80;8.60;;;37.80;1.00;;;;;;5084413;28;21172;-58
2022/04/29 06:35:06;;;;;;;26.93;8.57;;;38.50;1.00;;;;;;5079082;28;20468;-59
2022/04/29 06:37:32;;;;;;;26.27;8.70;;;39.40;1.00;;;;;;5077235;28;20949;-59
2022/04/29 06:39:59;;;;;;;28.60;9.27;;;40.10;1.00;;;;;;5070638;28;20481;-60
2022/04/29 06:42:27;;;;;;;27.13;9.03;;;40.70;1.00;;;;;;5076275;28;21124;-59
2022/04/29 06:44:54;;;;;;;29.77;9.37;;;40.70;1.00;;;;;;5070710;28;20876;-59
2022/04/29 06:47:21;;;;;;;27.30;9.90;;;41.00;1.00;;;;;;5075963;28;20460;-59
2022/04/29 06:49:47;;;;;;;26.70;9.40;;;41.70;1.00;;;;;;5078343;28;20484;-59
2022/04/29 06:52:14;;;;;;;26.30;9.00;;;42.10;1.00;;;;;;5079678;28;20465;-59
2022/04/29 06:54:41;;;;;;;26.07;9.70;;;42.80;1.00;;;;;;5079506;28;20461;-59
2022/04/29 06:57:09;;;;;;;29.10;9.00;;;42.80;1.00;;;;;;5079123;28;21096;-59
2022/04/29 06:59:37;;;;;;;27.93;10.03;;;42.40;1.00;;;;;;5070742;28;20473;-58
2022/04/29 07:02:05;;;;;;;27.80;10.23;;;42.40;1.00;;;;;;5076914;28;20480;-58
2022/04/29 07:04:32;;;;;;;28.23;9.17;;;41.70;1.00;;;;;;5078045;28;20464;-64
2022/04/29 07:06:59;;;;;;;26.00;9.47;;;41.50;1.00;;;;;;5082005;28;20488;-65
2022/04/29 07:09:26;;;;;;;26.40;8.93;;;42.00;1.00;;;;;;5077762;28;20524;-60
2022/04/29 07:11:54;;;;;;;27.30;10.03;;;41.80;1.00;;;;;;5075907;28;20556;-61
2022/04/29 07:14:22;;;;;;;27.00;8.33;;;41.70;1.00;;;;;;5078024;28;20479;-60
2022/04/29 07:16:50;;;;;;;27.60;9.30;;;41.40;1.00;;;;;;5072384;28;20488;-61
2022/04/29 07:19:17;;;;;;;25.60;9.47;;;41.40;1.00;;;;;;5077623;28;20472;-64
2022/04/29 07:21:43;;;;;;;25.30;9.07;;;41.90;1.00;;;;;;5080407;28;20551;-62
2022/04/29 07:24:12;;;;;;;27.80;8.90;;;42.40;1.00;;;;;;5076883;28;20474;-61
2022/04/29 07:26:39;;;;;;;26.70;8.97;;;42.40;1.00;;;;;;5081793;28;20460;-61
2022/04/29 07:29:06;;;;;;;27.17;9.13;;;42.80;1.00;;;;;;5080761;28;20889;-60
2022/04/29 07:31:33;;;;;;;26.67;9.60;;;43.50;1.00;;;;;;5074720;28;20906;-60
2022/04/29 07:34:02;;;;;;;26.60;8.87;;;44.20;1.00;;;;;;5076750;28;20482;-61
2022/04/29 07:42:06;;;;;;;25.10;9.30;;;44.50;1.00;;;;;;5076618;28;20606;-60
2022/04/29 07:44:33;;;;;;;28.17;9.03;;;44.40;1.00;;;;;;5073374;28;20468;-61
2022/04/29 07:47:00;;;;;;;26.53;7.97;;;44.60;1.00;;;;;;5076595;28;20543;-63
2022/04/29 07:49:29;;;;;;;24.73;8.63;;;44.90;1.00;;;;;;5077333;28;20495;-62
2022/04/29 07:51:55;;;;;;;25.50;8.97;;;44.30;1.00;;;;;;5079071;28;20464;-62
2022/04/29 07:54:23;;;;;;;24.83;8.23;;;43.70;1.00;;;;;;5075862;28;20494;-61
2022/04/29 07:56:50;;;;;;;26.40;8.20;;;43.80;1.00;;;;;;5079353;28;21010;-63
2022/04/29 07:59:16;;;;;;;26.80;7.93;;;43.90;1.00;;;;;;5073306;28;20488;-61
2022/04/29 08:01:44;;;;;;;24.90;7.60;;;43.70;1.00;;;;;;5073723;28;20531;-62
2022/04/29 08:04:12;;;;;;;27.33;8.80;;;43.60;1.00;;;;;;5080682;28;20843;-61
2022/04/29 08:06:40;;;;;;;25.47;7.57;;;44.00;1.00;;;;;;5073347;28;20472;-61
2022/04/29 08:09:08;;;;;;;25.17;7.07;;;44.40;1.00;;;;;;5081267;28;20487;-62
2022/04/29 08:11:35;;;;;;;23.40;7.30;;;44.10;1.00;;;;;;5077557;28;20544;-61
2022/04/29 08:14:02;;;;;;;23.20;5.80;;;44.10;1.00;;;;;;5080696;28;20471;-62
2022/04/29 08:16:32;;;;;;;23.20;6.20;;;44.30;1.00;;;;;;5070639;28;21227;-62
2022/04/29 08:18:58;;;;;;;23.07;5.60;;;43.90;1.00;;;;;;5076650;28;20477;-62
2022/04/29 08:21:25;;;;;;;25.10;5.80;;;43.50;1.00;;;;;;5081680;28;20460;-60
2022/04/29 08:23:53;;;;;;;27.17;6.00;;;43.90;1.00;;;;;;5077632;28;20625;-61
2022/04/29 08:26:20;;;;;;;23.37;6.23;;;44.30;1.00;;;;;;5076501;28;20701;-61
2022/04/29 08:28:46;;;;;;;24.33;5.10;;;43.40;1.00;;;;;;5076987;28;20485;-61
2022/04/29 08:31:14;;;;;;;23.47;5.53;;;42.50;1.00;;;;;;5079938;28;21022;-61
2022/04/29 08:33:41;;;;;;;23.53;5.30;;;41.80;1.00;;;;;;5081163;28;20456;-62
2022/04/29 08:36:08;;;;;;;24.40;5.30;;;41.50;1.00;;;;;;5073339;28;20962;-61
2022/04/29 08:38:34;;;;;;;25.60;4.53;;;42.00;1.00;;;;;;5070644;28;20527;-61
2022/04/29 08:41:03;;;;;;;23.00;4.90;;;42.10;1.00;;;;;;5078124;28;20472;-61
2022/04/29 08:43:32;;;;;;;25.07;5.23;;;40.80;1.00;;;;;;5083228;28;20691;-62
2022/04/29 08:46:00;;;;;;;26.07;6.23;;;38.50;1.00;;;;;;5074328;28;20465;-64
2022/04/29 08:48:29;;;;;;;24.67;5.37;;;37.20;1.00;;;;;;5068342;28;20477;-63
2022/04/29 08:50:58;;;;;;;24.00;4.60;;;37.20;1.00;;;;;;5070040;28;21140;-63
2022/04/29 08:53:24;;;;;;;24.10;4.37;;;38.30;1.00;;;;;;5076473;28;20460;-62
2022/04/29 08:58:38;;;;;;;23.70;4.33;;;40.60;1.00;;;;;;5082779;28;20601;-58
2022/04/29 09:01:08;;;;;;;23.40;4.40;;;41.20;1.00;;;;;;5083251;28;20519;-59
2022/04/29 09:03:34;;;;;;;24.07;4.50;;;40.40;1.00;;;;;;5074212;28;20468;-59
2022/04/29 09:06:02;;;;;;;25.03;5.07;;;40.30;1.00;;;;;;5077923;28;20460;-58
2022/04/29 09:08:32;;;;;;;28.00;6.07;;;40.10;1.00;;;;;;5077939;28;20558;-59
2022/04/29 09:11:02;;;;;;;24.70;5.13;;;39.90;1.00;;;;;;5077460;28;20535;-61
2022/04/29 09:13:30;;;;;;;24.50;5.43;;;39.10;1.00;;;;;;5075460;28;20457;-60
2022/04/29 09:16:01;;;;;;;25.73;5.10;;;38.50;1.00;;;;;;5074975;28;20854;-60
2022/04/29 09:18:34;;;;;;;25.73;5.00;;;37.70;1.00;;;;;;5075661;28;20503;-59
2022/04/29 09:21:04;;;;;;;24.90;4.50;;;37.10;1.00;;;;;;5079545;28;20459;-60
2022/04/29 09:23:31;;;;;;;26.50;4.93;;;36.70;1.00;;;;;;5079301;28;21001;-60
2022/04/29 09:26:01;;;;;;;24.60;4.80;;;36.00;1.00;;;;;;5081453;28;20953;-59
2022/04/29 09:28:28;;;;;;;27.43;6.40;;;35.30;1.00;;;;;;5079432;28;20481;-60
2022/04/29 09:30:57;;;;;;;26.20;5.87;;;34.60;1.00;;;;;;5075140;28;20594;-59
2022/04/29 09:33:26;;;;;;;27.50;6.33;;;34.30;1.00;;;;;;5080224;28;20462;-59
2022/04/29 09:35:54;;;;;;;27.73;5.93;;;34.10;1.00;;;;;;5082184;28;20469;-58
2022/04/29 09:41:07;;;;;;;27.17;5.30;;;33.70;1.00;;;;;;5078740;28;20444;-59
2022/04/29 09:43:36;;;;;;;25.17;4.90;;;34.50;1.00;;;;;;5077954;28;20554;-60
2022/04/29 09:46:20;;;;;;;28.40;4.87;;;34.70;1.00;;;;;;5076286;28;20461;-60
2022/04/29 09:49:04;;;;;;;25.17;5.20;;;35.00;1.00;;;;;;5081125;28;20481;-62
2022/04/29 09:51:54;;;;;;;29.70;5.50;;;34.50;1.00;;;;;;5074411;28;20884;-62
2022/04/29 09:54:24;;;;;;;26.87;5.90;;;34.60;1.00;;;;;;5078619;28;20465;-59
2022/04/29 09:57:19;;;;;;;27.30;5.50;;;34.80;1.00;;;;;;5075350;28;20468;-63
2022/04/29 09:59:47;;;;;;;26.73;5.60;;;34.10;1.00;;;;;;5049012;28;20539;-65
2022/04/29 10:02:17;;;;;;;27.63;5.13;;;32.60;1.00;;;;;;5076649;28;20954;-71
2022/04/29 10:04:45;;;;;;;29.27;5.20;;;30.70;1.00;;;;;;5080254;28;20457;-69
2022/04/29 10:07:14;;;;;;;28.27;6.10;;;29.10;1.00;;;;;;5073119;28;20484;-63
2022/04/29 10:09:45;;;;;;;29.50;5.97;;;28.00;1.00;;;;;;5085433;28;20488;-66
2022/04/29 10:12:14;;;;;;;29.63;6.53;;;27.20;1.00;;;;;;5077554;28;20475;-62
2022/04/29 10:14:42;;;;;;;27.73;5.50;;;27.00;1.00;;;;;;5079370;28;20955;-65
2022/04/29 10:22:49;;;;;;;28.00;5.70;;;30.90;1.00;;;;;;5082368;28;20451;-63
2022/04/29 10:25:17;;;;;;;28.23;5.50;;;31.20;1.00;;;;;;5076628;28;20970;-63
2022/04/29 10:27:45;;;;;;;29.93;6.60;;;30.80;1.00;;;;;;5075455;28;20457;-62
2022/04/29 10:30:12;;;;;;;28.97;5.67;;;29.30;1.00;;;;;;5069560;28;20500;-61
2022/04/29 10:33:02;;;;;;;29.03;6.00;;;28.00;1.00;;;;;;5080162;28;20461;-62
2022/04/29 10:35:50;;;;;;;29.43;5.90;;;26.90;1.00;;;;;;5075785;28;20468;-65
2022/04/29 10:38:18;;;;;;;29.63;6.60;;;26.10;1.00;;;;;;5079110;28;20472;-60
2022/04/29 10:40:47;;;;;;;29.13;5.40;;;25.60;1.00;;;;;;5077407;28;20978;-60
2022/04/29 10:43:15;;;;;;;31.60;6.50;;;25.20;1.00;;;;;;5075576;28;20950;-60
2022/04/29 10:46:15;;;;;;;31.63;7.60;;;24.70;1.00;;;;;;5078630;28;20469;-62
2022/04/29 10:48:42;;;;;;;32.47;7.97;;;24.20;1.00;;;;;;5080102;28;20480;-61
2022/04/29 10:51:12;;;;;;;29.00;6.00;;;23.70;1.00;;;;;;5078171;28;20484;-60
2022/04/29 10:53:40;;;;;;;28.80;6.07;;;23.40;1.00;;;;;;5077636;28;20460;-65
2022/04/29 10:56:38;;;;;;;31.17;5.60;;;23.20;1.00;;;;;;5073649;28;20465;-67
2022/04/29 10:59:19;;;;;;;29.40;5.90;;;23.20;1.00;;;;;;5074551;28;20484;-66
2022/04/29 11:01:50;;;;;;;29.27;5.80;;;23.10;1.00;;;;;;5078413;28;20468;-65
2022/04/29 11:04:47;;;;;;;30.30;6.20;;;22.90;1.00;;;;;;5078317;28;20461;-57
2022/04/29 11:07:38;;;;;;;35.20;7.57;;;22.70;1.00;;;;;;4996589;28;20463;-58
2022/04/29 11:10:07;;;;;;;30.33;6.77;;;22.50;1.00;;;;;;5072068;28;20553;-58
2022/04/29 11:12:35;;;;;;;29.90;6.87;;;22.60;1.00;;;;;;5077555;28;20988;-60
2022/04/29 11:15:10;;;;;;;32.90;7.83;;;22.70;1.00;;;;;;5072934;28;20457;-57
2022/04/29 11:17:37;;;;;;;30.50;6.90;;;22.70;1.00;;;;;;5080848;28;20468;-61
2022/04/29 11:20:18;;;;;;;30.50;7.13;;;22.60;1.00;;;;;;5079225;28;20484;-59
2022/04/29 11:25:54;;;;;;;31.40;8.27;;;22.40;1.00;;;;;;5078628;28;20594;-58
2022/04/29 11:28:22;;;;;;;34.03;8.23;;;22.30;1.00;;;;;;5080483;28;20468;-59
2022/04/29 11:30:50;;;;;;;33.47;9.07;;;22.30;1.00;;;;;;5070043;28;20488;-59
2022/04/29 11:33:23;;;;;;;32.37;7.60;;;22.20;1.00;;;;;;5077487;28;20843;-62
2022/04/29 11:35:57;;;;;;;37.30;7.93;;;22.20;1.00;;;;;;5073528;28;20496;-66
2022/04/29 11:38:25;;;;;;;31.77;9.33;;;22.20;1.00;;;;;;5074759;28;21096;-61
2022/04/29 11:40:53;;;;;;;31.00;8.20;;;22.20;1.00;;;;;;5076220;28;20539;-63
2022/04/29 11:43:24;;;;;;;31.27;8.03;;;22.00;1.00;;;;;;5076727;28;20522;-60
2022/04/29 11:46:00;;;;;;;34.70;8.30;;;21.90;1.00;;;;;;5077674;28;20511;-61
2022/04/29 11:48:27;;;;;;;33.40;7.97;;;22.00;1.00;;;;;;5075036;28;20500;-61
2022/04/29 11:50:57;;;;;;;34.00;8.37;;;21.80;1.00;;;;;;5075375;28;20485;-60
2022/04/29 11:53:25;;;;;;;31.77;8.07;;;21.60;1.00;;;;;;5078231;28;20992;-61
2022/04/29 11:55:54;;;;;;;33.93;9.27;;;21.60;1.00;;;;;;5072039;28;20460;-60
2022/04/29 11:58:21;;;;;;;31.10;8.00;;;21.70;1.00;;;;;;5074812;28;20997;-60
2022/04/29 12:00:52;;;;;;;31.20;8.27;;;21.80;1.00;;;;;;5076362;28;20472;-59
2022/04/29 12:03:20;;;;;;;32.80;8.17;;;22.00;1.00;;;;;;5077081;28;20456;-59
2022/04/29 12:05:47;;;;;;;30.90;7.63;;;22.30;1.00;;;;;;5079551;28;20479;-60
2022/04/29 12:08:14;;;;;;;32.60;7.07;;;22.30;1.00;;;;;;5075763;28;20496;-59
2022/04/29 12:10:45;;;;;;;30.83;7.90;;;22.40;1.00;;;;;;5082488;28;20570;-60
2022/04/29 12:13:12;;;;;;;30.70;7.40;;;22.50;1.00;;;;;;5074677;28;20456;-62
2022/04/29 12:15:41;;;;;;;33.73;9.27;;;22.50;1.00;;;;;;5082035;28;20949;-61
2022/04/29 12:18:10;;;;;;;32.90;8.37;;;22.40;1.00;;;;;;5072723;28;21338;-62
2022/04/29 12:20:38;;;;;;;31.53;7.70;;;22.20;1.00;;;;;;5077495;28;20493;-62
2022/04/29 12:23:12;;;;;;;32.43;9.80;;;22.20;1.00;;;;;;5076829;28;20515;-61
2022/04/29 12:25:42;;;;;;;31.07;7.33;;;22.30;1.00;;;;;;5080022;28;20455;-61
2022/04/29 12:28:16;;;;;;;31.10;7.43;;;22.40;1.00;;;;;;5079633;28;20476;-62
2022/04/29 12:36:47;;;;;;;32.17;9.07;;;22.50;1.00;;;;;;5080237;28;20475;-63
2022/04/29 12:39:15;;;;;;;31.83;7.90;;;22.30;1.00;;;;;;5081346;28;20484;-61
2022/04/29 12:41:43;;;;;;;34.33;8.47;;;22.20;1.00;;;;;;5077851;28;20515;-60
2022/04/29 12:45:03;;;;;;;33.23;9.73;;;22.10;1.00;;;;;;5079437;28;20464;-61
2022/04/29 12:47:00;;;;;;;33.27;8.87;;;21.90;1.00;;;;;;5081679;28;20482;-59
2022/04/29 12:49:27;;;;;;;33.37;9.27;;;21.80;1.00;;;;;;5077097;28;20481;-58
2022/04/29 12:51:59;;;;;;;32.50;8.70;;;21.70;1.00;;;;;;5073029;28;20480;-59
2022/04/29 12:54:27;;;;;;;32.87;8.80;;;21.70;1.00;;;;;;5072972;28;20521;-58
2022/04/29 12:56:54;;;;;;;32.57;9.10;;;21.70;1.00;;;;;;5077617;28;20500;-58
2022/04/29 12:59:25;;;;;;;34.30;10.30;;;21.60;1.00;;;;;;5078392;28;20988;-58
2022/04/29 13:01:53;;;;;;;32.77;8.87;;;21.40;1.00;;;;;;5079719;28;20568;-57
2022/04/29 13:04:20;;;;;;;32.87;8.57;;;21.30;1.00;;;;;;5077025;28;20526;-58
2022/04/29 13:06:47;;;;;;;33.20;8.20;;;21.30;1.00;;;;;;5077337;28;20462;-58
2022/04/29 13:09:14;;;;;;;32.63;8.87;;;21.40;1.00;;;;;;5078815;28;20488;-58
2022/04/29 13:11:44;;;;;;;31.80;8.93;;;21.30;1.00;;;;;;5080491;28;20488;-58
2022/04/29 13:14:14;;;;;;;33.17;9.00;;;21.20;1.00;;;;;;5080652;28;20492;-58
2022/04/29 13:16:43;;;;;;;33.77;7.53;;;21.10;1.00;;;;;;5079355;28;20462;-60
2022/04/29 13:19:10;;;;;;;32.07;8.20;;;21.10;1.00;;;;;;5076883;28;20483;-59
2022/04/29 13:21:37;;;;;;;31.97;8.60;;;21.00;1.00;;;;;;5078000;28;20452;-60